Time;durP1;ratioP1;P1;durP2;ratioP2;P2;SDS_P1;SDS_P2;PMS_P1;PMS_P2;Temp;Humidity;BMP_temperature;BMP_pressure;BME280_temperature;BME280_humidity;BME280_pressure;Samples;Min_cycle;Max_cycle;Signal;HPM_P1;HPM_P2
2022/11/14 00:04:19;;;;;;;;;;;;;;;;;;10582176;28;19928;-61
2022/11/14 00:09:25;;;;;;;;;;;;;;;;;;10583154;28;19924;-61
2022/11/14 00:14:27;;;;;;;;;;;;;;;;;;10582514;28;19927;-62
2022/11/14 00:19:29;;;;;;;;;;;;;;;;;;10582038;28;19924;-61
2022/11/14 00:24:31;;;;;;;;;;;;;;;;;;10590621;28;19924;-61
2022/11/14 00:29:33;;;;;;;;;;;;;;;;;;10590378;28;19927;-61
2022/11/14 00:34:35;;;;;;;;;;;;;;;;;;10543970;22;19924;-64
2022/11/14 00:39:37;;;;;;;;;;;;;;;;;;10506556;28;19978;-64
2022/11/14 00:44:39;;;;;;;;;;;;;;;;;;10506310;28;19974;-64
2022/11/14 00:49:41;;;;;;;;;;;;;;;;;;10506121;28;19924;-64
2022/11/14 00:54:43;;;;;;;;;;;;;;;;;;10505793;28;19955;-64
2022/11/14 00:59:45;;;;;;;;;;;;;;;;;;10505640;28;19940;-64
2022/11/14 01:04:47;;;;;;;;;;;;;;;;;;10504879;28;19925;-64
2022/11/14 01:09:49;;;;;;;;;;;;;;;;;;10505269;28;19978;-64
2022/11/14 01:14:51;;;;;;;;;;;;;;;;;;10504375;28;20425;-64
2022/11/14 01:19:53;;;;;;;;;;;;;;;;;;10504929;28;19924;-64
2022/11/14 01:24:57;;;;;;;;;;;;;;;;;;10504558;28;19978;-64
2022/11/14 01:29:59;;;;;;;;;;;;;;;;;;10503857;28;19928;-64
2022/11/14 01:35:01;;;;;;;;;;;;;;;;;;10502551;28;19925;-64
2022/11/14 01:40:03;;;;;;;;;;;;;;;;;;10504195;28;19924;-64
2022/11/14 01:45:05;;;;;;;;;;;;;;;;;;10503359;28;20913;-64
2022/11/14 01:50:07;;;;;;;;;;;;;;;;;;10503949;28;19958;-64
2022/11/14 01:55:09;;;;;;;;;;;;;;;;;;10503538;28;19924;-64
2022/11/14 02:00:11;;;;;;;;;;;;;;;;;;10503435;28;19929;-64
2022/11/14 02:05:13;;;;;;;;;;;;;;;;;;10503204;28;19977;-64
2022/11/14 02:10:15;;;;;;;;;;;;;;;;;;10502369;28;19924;-63
2022/11/14 02:15:17;;;;;;;;;;;;;;;;;;10502623;28;20428;-64
2022/11/14 02:20:19;;;;;;;;;;;;;;;;;;10501983;28;20384;-64
2022/11/14 02:25:21;;;;;;;;;;;;;;;;;;10502456;28;19924;-66
2022/11/14 02:30:23;;;;;;;;;;;;;;;;;;10502232;28;19978;-64
2022/11/14 02:35:25;;;;;;;;;;;;;;;;;;10501707;28;19924;-64
2022/11/14 02:40:27;;;;;;;;;;;;;;;;;;10501787;28;19954;-64
2022/11/14 02:45:29;;;;;;;;;;;;;;;;;;10500983;28;20371;-64
2022/11/14 02:50:32;;;;;;;;;;;;;;;;;;10501371;28;19928;-64
2022/11/14 02:55:34;;;;;;;;;;;;;;;;;;10500977;28;19995;-63
2022/11/14 03:00:36;;;;;;;;;;;;;;;;;;10500891;28;19976;-63
2022/11/14 03:05:54;;;;;;;;;;;;;;;;;;10500776;28;20019;-63
2022/11/14 03:10:56;;;;;;;;;;;;;;;;;;10499866;28;19987;-63
2022/11/14 03:15:58;;;;;;;;;;;;;;;;;;10500225;28;19929;-63
2022/11/14 03:21:00;;;;;;;;;;;;;;;;;;10500108;28;19928;-63
2022/11/14 03:26:02;;;;;;;;;;;;;;;;;;10499953;28;19924;-63
2022/11/14 03:31:04;;;;;;;;;;;;;;;;;;10497952;28;20351;-64
2022/11/14 03:36:06;;;;;;;;;;;;;;;;;;10499231;28;19928;-63
2022/11/14 03:41:08;;;;;;;;;;;;;;;;;;10499473;28;19924;-63
2022/11/14 03:46:10;;;;;;;;;;;;;;;;;;10499846;28;19970;-63
2022/11/14 03:51:12;;;;;;;;;;;;;;;;;;10499695;28;19966;-63
2022/11/14 03:56:14;;;;;;;;;;;;;;;;;;10498864;28;19959;-63
2022/11/14 04:01:16;;;;;;;;;;;;;;;;;;10499023;28;19925;-64
2022/11/14 04:06:18;;;;;;;;;;;;;;;;;;10498882;28;19935;-64
2022/11/14 04:11:20;;;;;;;;;;;;;;;;;;10498188;28;20383;-64
2022/11/14 04:16:22;;;;;;;;;;;;;;;;;;10498005;28;19924;-63
2022/11/14 04:21:24;;;;;;;;;;;;;;;;;;10498601;28;19982;-64
2022/11/14 04:26:26;;;;;;;;;;;;;;;;;;10497930;28;19978;-64
2022/11/14 04:31:28;;;;;;;;;;;;;;;;;;10498359;28;19928;-64
2022/11/14 04:36:30;;;;;;;;;;;;;;;;;;10497656;28;19928;-63
2022/11/14 04:41:32;;;;;;;;;;;;;;;;;;10498751;28;19951;-63
2022/11/14 04:46:34;;;;;;;;;;;;;;;;;;10498068;28;19928;-64
2022/11/14 04:51:36;;;;;;;;;;;;;;;;;;10497958;28;19966;-64
2022/11/14 04:56:38;;;;;;;;;;;;;;;;;;10497843;28;19978;-64
2022/11/14 05:01:40;;;;;;;;;;;;;;;;;;10497765;28;19950;-63
2022/11/14 05:06:43;;;;;;;;;;;;;;;;;;10499044;28;19925;-63
2022/11/14 05:11:45;;;;;;;;;;;;;;;;;;10504554;28;20342;-63
2022/11/14 05:16:47;;;;;;;;;;;;;;;;;;10504339;28;19986;-63
2022/11/14 05:21:49;;;;;;;;;;;;;;;;;;10504840;28;19924;-63
2022/11/14 05:26:51;;;;;;;;;;;;;;;;;;10504659;28;19954;-64
2022/11/14 05:31:53;;;;;;;;;;;;;;;;;;10503633;28;20443;-63
2022/11/14 05:36:55;;;;;;;;;;;;;;;;;;10504248;28;19974;-63
2022/11/14 05:41:57;;;;;;;;;;;;;;;;;;10503740;28;20371;-64
2022/11/14 05:46:59;;;;;;;;;;;;;;;;;;10503845;28;19970;-63
2022/11/14 05:52:01;;;;;;;;;;;;;;;;;;10503708;28;19925;-63
2022/11/14 05:57:03;;;;;;;;;;;;;;;;;;10503461;28;19924;-63
2022/11/14 06:02:05;;;;;;;;;;;;;;;;;;10502712;28;20441;-63
2022/11/14 06:07:07;;;;;;;;;;;;;;;;;;10503177;28;19925;-63
2022/11/14 06:12:09;;;;;;;;;;;;;;;;;;10503536;28;19950;-63
2022/11/14 06:17:11;;;;;;;;;;;;;;;;;;10502569;28;20326;-63
2022/11/14 06:22:13;;;;;;;;;;;;;;;;;;10502367;28;19978;-63
2022/11/14 06:27:15;;;;;;;;;;;;;;;;;;10501773;28;19928;-63
2022/11/14 06:32:17;;;;;;;;;;;;;;;;;;10501968;28;19970;-63
2022/11/14 06:37:19;;;;;;;;;;;;;;;;;;10501847;28;19978;-63
2022/11/14 06:42:21;;;;;;;;;;;;;;;;;;10501079;28;19924;-63
2022/11/14 06:47:23;;;;;;;;;;;;;;;;;;10501981;28;19924;-63
2022/11/14 06:52:26;;;;;;;;;;;;;;;;;;10501636;28;19974;-63
2022/11/14 06:57:28;;;;;;;;;;;;;;;;;;10500972;28;19925;-63
2022/11/14 07:02:30;;;;;;;;;;;;;;;;;;10500243;28;20429;-63
2022/11/14 07:07:32;;;;;;;;;;;;;;;;;;10500711;28;19926;-63
2022/11/14 07:12:34;;;;;;;;;;;;;;;;;;10499899;28;20291;-63
2022/11/14 07:17:36;;;;;;;;;;;;;;;;;;10500717;28;19971;-63
2022/11/14 07:22:38;;;;;;;;;;;;;;;;;;10499485;28;20307;-63
2022/11/14 07:27:40;;;;;;;;;;;;;;;;;;10499932;28;19974;-63
2022/11/14 07:32:42;;;;;;;;;;;;;;;;;;10498717;28;19975;-63
2022/11/14 07:37:44;;;;;;;;;;;;;;;;;;10499551;28;19925;-63
2022/11/14 07:42:46;;;;;;;;;;;;;;;;;;10515083;28;19928;-63
2022/11/14 07:47:48;;;;;;;;;;;;;;;;;;10498718;28;20440;-63
2022/11/14 07:52:50;;;;;;;;;;;;;;;;;;10499733;28;19924;-63
2022/11/14 07:57:52;;;;;;;;;;;;;;;;;;10499149;28;19990;-63
2022/11/14 08:02:54;;;;;;;;;;;;;;;;;;10499103;28;19974;-63
2022/11/14 08:07:57;;;;;;;;;;;;;;;;;;10498355;28;20303;-63
2022/11/14 08:12:59;;;;;;;;;;;;;;;;;;10498831;28;19928;-64
2022/11/14 08:18:21;;;;;;;;;;;;;;;;;;10498886;28;19930;-64
2022/11/14 08:23:23;;;;;;;;;;;;;;;;;;10498048;28;19924;-64
2022/11/14 08:28:25;;;;;;;;;;;;;;;;;;10499461;28;19929;-64
2022/11/14 08:33:27;;;;;;;;;;;;;;;;;;10497707;28;19925;-64
2022/11/14 08:38:29;;;;;;;;;;;;;;;;;;10497622;28;20367;-65
2022/11/14 08:43:32;;;;;;;;;;;;;;;;;;10502037;28;19970;-65
2022/11/14 08:48:34;;;;;;;;;;;;;;;;;;10506341;28;19928;-65
2022/11/14 08:53:36;;;;;;;;;;;;;;;;;;10506100;28;19928;-65
2022/11/14 08:58:38;;;;;;;;;;;;;;;;;;10505200;28;19925;-65
2022/11/14 09:03:40;;;;;;;;;;;;;;;;;;10505661;28;19928;-65
2022/11/14 09:08:42;;;;;;;;;;;;;;;;;;10504856;28;20002;-65
2022/11/14 09:13:44;;;;;;;;;;;;;;;;;;10504664;28;19928;-65
2022/11/14 09:18:46;;;;;;;;;;;;;;;;;;10505021;28;19928;-65
2022/11/14 09:23:48;;;;;;;;;;;;;;;;;;10504279;28;19924;-65
2022/11/14 09:28:50;;;;;;;;;;;;;;;;;;10504722;28;19924;-65
2022/11/14 09:33:52;;;;;;;;;;;;;;;;;;10504475;28;19954;-65
2022/11/14 09:38:54;;;;;;;;;;;;;;;;;;10504297;28;19925;-66
2022/11/14 09:43:56;;;;;;;;;;;;;;;;;;10503569;28;19957;-66
2022/11/14 09:48:58;;;;;;;;;;;;;;;;;;10503369;28;19978;-66
2022/11/14 09:54:00;;;;;;;;;;;;;;;;;;10502741;28;20283;-66
2022/11/14 09:59:02;;;;;;;;;;;;;;;;;;10503597;28;19928;-66
2022/11/14 10:04:04;;;;;;;;;;;;;;;;;;10503446;28;19925;-66
2022/11/14 10:09:10;;;;;;;;;;;;;;;;;;10503234;28;20085;-66
2022/11/14 10:14:12;;;;;;;;;;;;;;;;;;10503008;28;19924;-66
2022/11/14 10:19:14;;;;;;;;;;;;;;;;;;10502792;28;19925;-65
2022/11/14 10:24:17;;;;;;;;;;;;;;;;;;10503098;28;19928;-65
2022/11/14 10:29:19;;;;;;;;;;;;;;;;;;10502402;28;19925;-65
2022/11/14 10:34:21;;;;;;;;;;;;;;;;;;10517564;28;19924;-65
2022/11/14 10:39:23;;;;;;;;;;;;;;;;;;10501886;28;19925;-65
2022/11/14 10:44:25;;;;;;;;;;;;;;;;;;10502339;28;19925;-65
2022/11/14 10:49:27;;;;;;;;;;;;;;;;;;10500901;28;19977;-65
2022/11/14 10:54:29;;;;;;;;;;;;;;;;;;10501319;28;19985;-65
2022/11/14 10:59:31;;;;;;;;;;;;;;;;;;10500974;28;19925;-65
2022/11/14 11:04:33;;;;;;;;;;;;;;;;;;10500165;28;19990;-65
2022/11/14 11:14:56;;;;;;;;;;;;;;;;;;10500520;28;19934;-65
2022/11/14 11:19:58;;;;;;;;;;;;;;;;;;10499753;28;20363;-65
2022/11/14 11:25:04;;;;;;;;;;;;;;;;;;10499598;28;20337;-65
2022/11/14 11:30:06;;;;;;;;;;;;;;;;;;10499941;28;19929;-65
2022/11/14 11:35:09;;;;;;;;;;;;;;;;;;10499428;28;19954;-65
2022/11/14 11:40:11;;;;;;;;;;;;;;;;;;10500473;28;19925;-64
2022/11/14 11:45:16;;;;;;;;;;;;;;;;;;10499558;28;19924;-64
2022/11/14 11:50:18;;;;;;;;;;;;;;;;;;10499398;28;19925;-64
2022/11/14 11:55:20;;;;;;;;;;;;;;;;;;10498617;28;20330;-64
2022/11/14 12:00:22;;;;;;;;;;;;;;;;;;10498904;28;19974;-64
2022/11/14 12:05:24;;;;;;;;;;;;;;;;;;10497642;28;19928;-64
2022/11/14 12:10:26;;;;;;;;;;;;;;;;;;10497284;28;19929;-64
2022/11/14 12:15:28;;;;;;;;;;;;;;;;;;10498472;28;19925;-64
2022/11/14 12:20:30;;;;;;;;;;;;;;;;;;10498183;28;20425;-64
2022/11/14 12:25:32;;;;;;;;;;;;;;;;;;10497186;28;20376;-64
2022/11/14 12:30:34;;;;;;;;;;;;;;;;;;10496428;28;19925;-64
2022/11/14 12:35:38;;;;;;;;;;;;;;;;;;10497734;28;19929;-64
2022/11/14 12:40:40;;;;;;;;;;;;;;;;;;10498040;28;19925;-65
2022/11/14 12:45:42;;;;;;;;;;;;;;;;;;10493622;28;19924;-64
2022/11/14 12:50:44;;;;;;;;;;;;;;;;;;10498699;23;19974;-66
2022/11/14 12:55:46;;;;;;;;;;;;;;;;;;10496822;28;19936;-65
2022/11/14 13:00:48;;;;;;;;;;;;;;;;;;10496866;28;19928;-65
2022/11/14 13:05:51;;;;;;;;;;;;;;;;;;10497858;28;19970;-65
2022/11/14 13:10:53;;;;;;;;;;;;;;;;;;10497733;28;19924;-65
2022/11/14 13:26:37;;;;;;;;;;;;;;;;;;10497487;28;19978;-68
2022/11/14 13:31:40;;;;;;;;;;;;;;;;;;10502790;28;20413;-68
2022/11/14 13:36:42;;;;;;;;;;;;;;;;;;10504414;28;19924;-69
2022/11/14 13:41:44;;;;;;;;;;;;;;;;;;10503586;28;20371;-68
2022/11/14 13:46:48;;;;;;;;;;;;;;;;;;10499024;28;19948;-68
2022/11/14 13:51:51;;;;;;;;;;;;;;;;;;10462990;28;19925;-67
2022/11/14 13:56:53;;;;;;;;;;;;;;;;;;10462550;28;19979;-68
2022/11/14 14:02:01;;;;;;;;;;;;;;;;;;10462120;28;19981;-68
2022/11/14 14:07:03;;;;;;;;;;;;;;;;;;10461942;28;19955;-68
2022/11/14 14:12:05;;;;;;;;;;;;;;;;;;10461741;28;19928;-68
2022/11/14 14:17:07;;;;;;;;;;;;;;;;;;10461457;28;20145;-69
2022/11/14 14:22:09;;;;;;;;;;;;;;;;;;10461345;28;19929;-69
2022/11/14 14:27:11;;;;;;;;;;;;;;;;;;10460536;28;19978;-69
2022/11/14 14:32:13;;;;;;;;;;;;;;;;;;10460914;28;19928;-69
2022/11/14 14:37:15;;;;;;;;;;;;;;;;;;10460659;28;19925;-69
2022/11/14 14:42:17;;;;;;;;;;;;;;;;;;10459504;28;20333;-69
2022/11/14 14:47:19;;;;;;;;;;;;;;;;;;10464520;28;19925;-69
2022/11/14 14:52:21;;;;;;;;;;;;;;;;;;10460191;28;19924;-69
2022/11/14 14:57:24;;;;;;;;;;;;;;;;;;10459294;28;20375;-64
2022/11/14 15:02:26;;;;;;;;;;;;;;;;;;10459115;28;20383;-63
2022/11/14 15:07:28;;;;;;;;;;;;;;;;;;10459587;28;19979;-63
2022/11/14 15:12:30;;;;;;;;;;;;;;;;;;10458695;28;20295;-63
2022/11/14 15:17:32;;;;;;;;;;;;;;;;;;10459550;28;19925;-63
2022/11/14 15:22:38;;;;;;;;;;;;;;;;;;10458163;28;19925;-63
2022/11/14 15:27:40;;;;;;;;;;;;;;;;;;10458645;28;19925;-63
2022/11/14 15:32:42;;;;;;;;;;;;;;;;;;10459055;28;19978;-63
2022/11/14 15:37:44;;;;;;;;;;;;;;;;;;10458346;28;19928;-63
2022/11/14 15:42:46;;;;;;;;;;;;;;;;;;10458182;28;20401;-63
2022/11/14 15:47:49;;;;;;;;;;;;;;;;;;10457252;28;19971;-63
2022/11/14 15:52:51;;;;;;;;;;;;;;;;;;10457168;28;19924;-63
2022/11/14 15:57:53;;;;;;;;;;;;;;;;;;10457679;28;19924;-63
2022/11/14 16:03:15;;;;;;;;;;;;;;;;;;10457024;28;20348;-63
2022/11/14 16:08:17;;;;;;;;;;;;;;;;;;10456650;28;19928;-63
2022/11/14 16:13:19;;;;;;;;;;;;;;;;;;10456759;28;20394;-63
2022/11/14 16:18:21;;;;;;;;;;;;;;;;;;10456545;28;19925;-63
2022/11/14 16:23:24;;;;;;;;;;;;;;;;;;10457162;28;19978;-63
2022/11/14 16:28:27;;;;;;;;;;;;;;;;;;10456980;28;20319;-63
2022/11/14 16:33:30;;;;;;;;;;;;;;;;;;10457015;28;19925;-63
2022/11/14 16:38:32;;;;;;;;;;;;;;;;;;10457334;28;19932;-63
2022/11/14 16:43:34;;;;;;;;;;;;;;;;;;10456829;28;19971;-63
2022/11/14 16:48:36;;;;;;;;;;;;;;;;;;10468671;28;19924;-63
2022/11/14 16:53:38;;;;;;;;;;;;;;;;;;10456670;28;19929;-63
2022/11/14 16:58:40;;;;;;;;;;;;;;;;;;10456431;28;19974;-63
2022/11/14 17:03:42;;;;;;;;;;;;;;;;;;10458824;28;19925;-63
2022/11/14 17:08:45;;;;;;;;;;;;;;;;;;10464254;28;19925;-63
2022/11/14 17:13:47;;;;;;;;;;;;;;;;;;10464264;28;19924;-63
2022/11/14 17:18:49;;;;;;;;;;;;;;;;;;10464294;28;19924;-63
2022/11/14 17:23:51;;;;;;;;;;;;;;;;;;10462931;28;19924;-63
2022/11/14 17:28:53;;;;;;;;;;;;;;;;;;10463464;28;19925;-63
2022/11/14 17:33:55;;;;;;;;;;;;;;;;;;10463144;28;20282;-64
2022/11/14 17:38:57;;;;;;;;;;;;;;;;;;10462338;28;20338;-63
2022/11/14 17:44:01;;;;;;;;;;;;;;;;;;10462253;28;20330;-63
2022/11/14 17:49:03;;;;;;;;;;;;;;;;;;10461958;28;19925;-63
2022/11/14 17:54:05;;;;;;;;;;;;;;;;;;10461876;28;19928;-63
2022/11/14 17:59:07;;;;;;;;;;;;;;;;;;10462204;28;19925;-63
2022/11/14 18:04:09;;;;;;;;;;;;;;;;;;10462675;28;19955;-64
2022/11/14 18:09:11;;;;;;;;;;;;;;;;;;10461927;28;19924;-63
2022/11/14 18:14:15;;;;;;;;;;;;;;;;;;10460231;28;20304;-64
2022/11/14 18:19:17;;;;;;;;;;;;;;;;;;10460816;28;19925;-63
2022/11/14 18:24:20;;;;;;;;;;;;;;;;;;10461353;28;19924;-63
2022/11/14 18:29:22;;;;;;;;;;;;;;;;;;10461155;28;19925;-64
2022/11/14 18:34:24;;;;;;;;;;;;;;;;;;10460330;28;19924;-63
2022/11/14 18:39:27;;;;;;;;;;;;;;;;;;10460646;28;19925;-63
2022/11/14 18:44:29;;;;;;;;;;;;;;;;;;10459895;28;20376;-63
2022/11/14 18:49:32;;;;;;;;;;;;;;;;;;10459601;28;19925;-63
2022/11/14 18:54:34;;;;;;;;;;;;;;;;;;10460016;28;20323;-64
2022/11/14 18:59:36;;;;;;;;;;;;;;;;;;10459816;28;19978;-63
2022/11/14 19:04:40;;;;;;;;;;;;;;;;;;10459085;28;20310;-63
2022/11/14 19:09:43;;;;;;;;;;;;;;;;;;10459542;28;19975;-63
2022/11/14 19:14:45;;;;;;;;;;;;;;;;;;10459332;28;19971;-63
2022/11/14 19:19:47;;;;;;;;;;;;;;;;;;10459044;28;19929;-63
2022/11/14 19:24:49;;;;;;;;;;;;;;;;;;10459014;28;19960;-64
2022/11/14 19:29:51;;;;;;;;;;;;;;;;;;10458300;28;20358;-63
2022/11/14 19:34:53;;;;;;;;;;;;;;;;;;10458587;28;19925;-63
2022/11/14 19:39:55;;;;;;;;;;;;;;;;;;10457700;28;20339;-63
2022/11/14 19:44:57;;;;;;;;;;;;;;;;;;10458229;28;19929;-63
2022/11/14 19:49:59;;;;;;;;;;;;;;;;;;10457720;28;19925;-63
2022/11/14 19:55:02;;;;;;;;;;;;;;;;;;10457888;28;19925;-63
2022/11/14 20:00:04;;;;;;;;;;;;;;;;;;10457683;28;19979;-63
2022/11/14 20:05:06;;;;;;;;;;;;;;;;;;10458107;28;19925;-63
2022/11/14 20:10:08;;;;;;;;;;;;;;;;;;10457344;28;19928;-63
2022/11/14 20:15:10;;;;;;;;;;;;;;;;;;10457435;28;19929;-63
2022/11/14 20:20:12;;;;;;;;;;;;;;;;;;10457254;28;19925;-63
2022/11/14 20:25:15;;;;;;;;;;;;;;;;;;10456633;28;20337;-63
2022/11/14 20:30:17;;;;;;;;;;;;;;;;;;10457111;28;19925;-63
2022/11/14 20:35:20;;;;;;;;;;;;;;;;;;10456401;28;19978;-63
2022/11/14 20:40:22;;;;;;;;;;;;;;;;;;10462800;28;19924;-63
2022/11/14 20:45:24;;;;;;;;;;;;;;;;;;10464544;28;20422;-63
2022/11/14 20:50:26;;;;;;;;;;;;;;;;;;10464725;28;19974;-63
2022/11/14 20:55:28;;;;;;;;;;;;;;;;;;10464791;28;19982;-63
2022/11/14 21:00:30;;;;;;;;;;;;;;;;;;10464544;28;19924;-63
2022/11/14 21:05:32;;;;;;;;;;;;;;;;;;10463959;28;20311;-63
2022/11/14 21:11:08;;;;;;;;;;;;;;;;;;10464192;28;19929;-63
2022/11/14 21:16:02;;;;;;;;;;;;;;;;;;10460832;28;19925;-63
2022/11/14 21:21:04;;;;;;;;;;;;;;;;;;10464308;28;19954;-63
2022/11/14 21:26:07;;;;;;;;;;;;;;;;;;10463450;28;19925;-63
2022/11/14 21:31:09;;;;;;;;;;;;;;;;;;10463335;28;19974;-63
2022/11/14 21:36:11;;;;;;;;;;;;;;;;;;10462610;28;20326;-63
2022/11/14 21:41:33;;;;;;;;;;;;;;;;;;10462378;28;19967;-63
2022/11/14 21:46:35;;;;;;;;;;;;;;;;;;10462213;28;19955;-63
2022/11/14 21:51:37;;;;;;;;;;;;;;;;;;10461330;28;19950;-63
2022/11/14 21:56:39;;;;;;;;;;;;;;;;;;10462382;28;20410;-63
2022/11/14 22:07:02;;;;;;;;;;;;;;;;;;10462092;28;19925;-63
2022/11/14 22:12:05;;;;;;;;;;;;;;;;;;10461911;28;19932;-63
2022/11/14 22:17:07;;;;;;;;;;;;;;;;;;10461718;28;19925;-63
2022/11/14 22:22:09;;;;;;;;;;;;;;;;;;10460760;28;19925;-63
2022/11/14 22:27:11;;;;;;;;;;;;;;;;;;10461252;28;19928;-63
2022/11/14 22:32:13;;;;;;;;;;;;;;;;;;10461543;28;19924;-62
2022/11/14 22:37:15;;;;;;;;;;;;;;;;;;10460179;28;20335;-62
2022/11/14 22:42:17;;;;;;;;;;;;;;;;;;10460664;28;19955;-63
2022/11/14 22:47:19;;;;;;;;;;;;;;;;;;10459857;28;19982;-63
2022/11/14 22:52:21;;;;;;;;;;;;;;;;;;10461656;28;19925;-63
2022/11/14 22:57:23;;;;;;;;;;;;;;;;;;10459929;28;19978;-63
2022/11/14 23:02:25;;;;;;;;;;;;;;;;;;10459504;28;19974;-63
2022/11/14 23:07:27;;;;;;;;;;;;;;;;;;10460660;28;19924;-62
2022/11/14 23:12:30;;;;;;;;;;;;;;;;;;10458785;28;19924;-63
2022/11/14 23:17:32;;;;;;;;;;;;;;;;;;10458568;28;19925;-63
2022/11/14 23:22:34;;;;;;;;;;;;;;;;;;10459025;28;19978;-63
2022/11/14 23:27:36;;;;;;;;;;;;;;;;;;10458247;28;20269;-63
2022/11/14 23:32:38;;;;;;;;;;;;;;;;;;10458667;28;19978;-62
2022/11/14 23:37:40;;;;;;;;;;;;;;;;;;10458067;28;19925;-62
2022/11/14 23:42:42;;;;;;;;;;;;;;;;;;10458316;28;19975;-62
2022/11/14 23:47:44;;;;;;;;;;;;;;;;;;10458138;28;19925;-62
2022/11/14 23:52:46;;;;;;;;;;;;;;;;;;10457204;28;19925;-63
2022/11/14 23:57:48;;;;;;;;;;;;;;;;;;10457782;28;19975;-63
